Time;durP1;ratioP1;P1;durP2;ratioP2;P2;SDS_P1;SDS_P2;PMS_P1;PMS_P2;Temp;Humidity;BMP_temperature;BMP_pressure;BME280_temperature;BME280_humidity;BME280_pressure;Samples;Min_cycle;Max_cycle;Signal;HPM_P1;HPM_P2
2023/10/10 00:00:54;;;;;;;12.27;7.10;;;;;;;25.29;50.82;102147.00;5101295;28;20063;-67
2023/10/10 00:03:21;;;;;;;13.60;6.93;;;;;;;25.58;49.85;102142.81;5091496;28;20035;-67
2023/10/10 00:05:46;;;;;;;15.25;8.32;;;;;;;25.76;49.48;102146.38;5103624;28;20027;-68
2023/10/10 00:08:12;;;;;;;13.02;7.50;;;;;;;25.69;49.44;102143.16;5088729;28;20111;-67
2023/10/10 00:10:50;;;;;;;12.82;8.38;;;;;;;25.45;50.09;102147.97;5101945;28;20028;-67
2023/10/10 00:13:19;;;;;;;14.43;7.80;;;;;;;25.47;50.30;102146.09;5087699;28;20027;-67
2023/10/10 00:15:55;;;;;;;14.52;8.25;;;;;;;25.57;50.11;102127.75;5122193;28;20475;-67
2023/10/10 00:18:21;;;;;;;17.20;9.07;;;;;;;25.47;50.23;102134.50;5094980;28;20031;-68
2023/10/10 00:21:06;;;;;;;18.63;9.13;;;;;;;25.40;50.70;102132.16;5106976;28;20066;-67
2023/10/10 00:23:47;;;;;;;16.70;9.23;;;;;;;25.36;51.10;102140.41;5113020;28;20114;-67
2023/10/10 00:26:14;;;;;;;20.45;9.75;;;;;;;25.13;51.85;102142.47;5108248;27;20176;-67
2023/10/10 00:28:44;;;;;;;18.90;9.82;;;;;;;25.55;50.82;102143.88;5106445;28;20031;-67
2023/10/10 00:31:11;;;;;;;15.02;8.52;;;;;;;25.59;50.27;102133.00;5100216;28;20500;-67
2023/10/10 00:33:40;;;;;;;17.80;9.40;;;;;;;25.40;50.75;102131.28;5096496;28;20485;-68
2023/10/10 00:36:12;;;;;;;17.83;9.18;;;;;;;25.18;51.55;102128.84;5111480;28;20103;-68
2023/10/10 00:38:37;;;;;;;19.98;9.82;;;;;;;25.12;51.58;102135.38;5099519;28;20340;-67
2023/10/10 00:41:07;;;;;;;17.52;9.20;;;;;;;25.09;51.36;102124.84;5110881;28;20031;-67
2023/10/10 00:43:33;;;;;;;19.17;9.60;;;;;;;25.43;50.90;102123.13;5120843;27;20031;-67
2023/10/10 00:46:04;;;;;;;20.48;8.50;;;;;;;25.23;51.47;102127.66;5111112;28;20552;-67
2023/10/10 00:48:32;;;;;;;20.38;8.68;;;;;;;24.78;51.94;102126.38;5112251;28;20027;-67
2023/10/10 00:51:08;;;;;;;17.67;9.32;;;;;;;24.88;51.56;102110.72;5120945;27;20046;-68
2023/10/10 00:53:35;;;;;;;18.38;8.05;;;;;;;24.32;52.97;102117.91;5111110;28;20046;-67
2023/10/10 00:56:05;;;;;;;17.48;9.05;;;;;;;24.04;54.55;102113.84;5108301;28;20027;-67
2023/10/10 00:58:38;;;;;;;19.73;8.25;;;;;;;24.59;52.99;102114.81;5110450;28;20040;-67
2023/10/10 01:01:10;;;;;;;15.82;8.18;;;;;;;25.12;51.26;102113.13;5108561;28;20476;-67
2023/10/10 01:03:43;;;;;;;22.88;9.55;;;;;;;24.52;52.50;102114.25;5117284;27;20031;-67
2023/10/10 01:06:14;;;;;;;17.27;9.40;;;;;;;24.83;52.03;102105.63;5102406;28;20027;-68
2023/10/10 01:08:58;;;;;;;19.75;10.07;;;;;;;24.59;52.64;102101.47;5103241;27;20092;-67
2023/10/10 01:11:23;;;;;;;21.58;11.57;;;;;;;24.44;52.78;102095.06;5133276;27;20031;-67
2023/10/10 01:13:52;;;;;;;22.35;10.32;;;;;;;24.05;54.38;102097.75;5113505;27;20058;-67
2023/10/10 01:16:23;;;;;;;27.75;10.35;;;;;;;24.87;51.93;102087.63;5118656;27;20073;-68
2023/10/10 01:18:51;;;;;;;29.25;12.38;;;;;;;24.59;52.95;102088.09;5104277;27;20386;-67
2023/10/10 01:21:28;;;;;;;22.95;10.43;;;;;;;24.85;51.73;102090.38;5111784;28;20031;-67
2023/10/10 01:23:58;;;;;;;24.58;11.23;;;;;;;24.56;52.06;102083.78;5097373;27;20027;-68
2023/10/10 01:26:28;;;;;;;25.25;10.90;;;;;;;24.84;51.74;102088.66;5123252;27;20016;-68
2023/10/10 01:28:54;;;;;;;22.35;11.10;;;;;;;24.70;52.48;102085.78;5116816;27;20073;-67
2023/10/10 01:31:19;;;;;;;22.40;11.82;;;;;;;24.34;53.43;102098.19;5112917;27;20031;-66
2023/10/10 01:33:47;;;;;;;25.80;11.00;;;;;;;24.27;53.92;102098.56;5121093;27;20035;-67
2023/10/10 01:36:18;;;;;;;26.58;9.63;;;;;;;24.52;53.26;102076.84;5126638;27;20023;-67
2023/10/10 01:38:56;;;;;;;21.02;10.77;;;;;;;24.56;52.85;102076.63;5123006;27;20023;-66
2023/10/10 01:41:33;;;;;;;28.88;10.02;;;;;;;24.24;53.72;102078.19;5099600;27;20182;-67
2023/10/10 01:46:36;;;;;;;23.92;10.75;;;;;;;24.26;54.05;102076.31;5111729;28;20092;-66
2023/10/10 01:49:02;;;;;;;24.60;11.02;;;;;;;24.38;53.18;102074.84;5105357;27;20452;-66
2023/10/10 01:51:33;;;;;;;22.83;11.93;;;;;;;24.77;52.63;102059.63;5100572;27;20023;-66
2023/10/10 01:53:59;;;;;;;28.27;12.15;;;;;;;24.58;52.60;102060.53;5111199;27;20034;-66
2023/10/10 01:56:27;;;;;;;25.92;11.43;;;;;;;24.38;53.59;102064.16;5097864;28;20031;-67
2023/10/10 01:58:54;;;;;;;26.90;11.25;;;;;;;24.07;54.36;102063.00;5098880;27;20031;-66
2023/10/10 02:01:20;;;;;;;27.02;12.30;;;;;;;24.17;55.18;102058.06;5094253;27;20146;-66
2023/10/10 02:03:47;;;;;;;24.95;10.35;;;;;;;24.30;54.06;102063.69;5098041;27;20027;-67
2023/10/10 02:06:27;;;;;;;25.55;11.88;;;;;;;24.28;54.67;102057.56;5115329;27;20019;-67
2023/10/10 02:08:55;;;;;;;30.35;12.13;;;;;;;24.89;52.73;102043.84;5112362;27;20031;-66
2023/10/10 02:11:21;;;;;;;27.38;12.40;;;;;;;24.92;53.07;102041.94;5093092;28;20038;-66
2023/10/10 02:13:47;;;;;;;26.65;12.40;;;;;;;24.89;52.41;102034.91;5112709;27;20031;-66
2023/10/10 02:16:15;;;;;;;32.08;13.00;;;;;;;25.11;52.12;102045.38;5113265;27;20471;-67
2023/10/10 02:18:44;;;;;;;31.35;13.60;;;;;;;24.97;52.28;102042.56;5097729;27;20026;-67
2023/10/10 02:21:15;;;;;;;31.38;13.52;;;;;;;25.08;52.68;102053.56;5112400;27;20096;-66
2023/10/10 02:23:44;;;;;;;24.35;12.25;;;;;;;25.33;51.47;102053.16;5113808;27;20080;-66
2023/10/10 02:26:35;;;;;;;27.23;13.77;;;;;;;25.49;51.26;102052.34;5129863;27;20114;-67
2023/10/10 02:31:51;;;;;;;32.55;14.70;;;;;;;25.63;50.61;102048.91;5131409;27;20046;-67
2023/10/10 02:34:19;;;;;;;31.55;13.18;;;;;;;25.85;50.00;102054.78;5108489;27;20574;-67
2023/10/10 02:36:53;;;;;;;30.88;13.98;;;;;;;25.46;50.62;102042.66;5100256;27;20033;-67
2023/10/10 02:39:26;;;;;;;30.27;12.77;;;;;;;25.62;50.56;102036.47;5113873;27;20027;-66
2023/10/10 02:41:59;;;;;;;25.98;12.05;;;;;;;25.07;51.97;102038.44;5112782;27;20023;-66
2023/10/10 02:46:59;;;;;;;24.27;11.75;;;;;;;25.37;50.83;102029.78;5117872;27;20035;-67
2023/10/10 02:51:56;;;;;;;22.05;11.82;;;;;;;24.79;51.94;102021.16;5131852;27;20027;-66
2023/10/10 02:54:33;;;;;;;22.67;11.35;;;;;;;25.32;51.11;102018.41;5108274;28;20154;-67
2023/10/10 02:59:50;;;;;;;23.80;12.68;;;;;;;25.44;50.70;102017.78;5111445;28;20104;-67
2023/10/10 03:02:20;;;;;;;31.13;12.60;;;;;;;25.04;51.79;102023.41;5091906;27;20111;-67
2023/10/10 03:07:30;;;;;;;34.97;13.88;;;;;;;24.44;53.49;102014.91;5114185;27;20031;-66
2023/10/10 03:12:37;;;;;;;22.27;11.82;;;;;;;24.15;54.52;102019.88;5111528;28;20096;-67
2023/10/10 03:15:27;;;;;;;21.80;11.18;;;;;;;24.65;52.97;102013.00;5096081;27;20019;-66
2023/10/10 03:20:38;;;;;;;23.63;11.35;;;;;;;25.03;52.20;102018.16;5127242;27;20027;-67
2023/10/10 03:31:10;;;;;;;24.50;12.75;;;;;;;25.46;50.67;102007.88;5118034;27;20502;-66
2023/10/10 03:33:43;;;;;;;29.58;12.70;;;;;;;25.67;50.29;102013.00;5092952;28;20032;-66
2023/10/10 05:25:09;;;;;;;27.85;14.73;;;;;;;22.98;55.09;101916.75;5121843;27;20127;-67
2023/10/10 05:27:41;;;;;;;31.33;15.23;;;;;;;23.21;54.68;101913.94;5109709;27;20019;-67
2023/10/10 05:30:07;;;;;;;27.95;15.80;;;;;;;23.13;54.61;101908.09;5097092;28;20169;-67
2023/10/10 05:32:33;;;;;;;29.85;14.15;;;;;;;23.08;53.90;101920.75;5112875;28;20046;-67
2023/10/10 05:34:58;;;;;;;28.67;15.43;;;;;;;23.50;53.33;101917.03;5110995;28;20455;-67
2023/10/10 05:37:27;;;;;;;27.30;13.77;;;;;;;23.27;54.10;101914.59;5110928;28;20066;-67
2023/10/10 05:39:56;;;;;;;32.33;15.52;;;;;;;23.14;54.60;101915.16;5112269;28;20051;-67
2023/10/10 05:42:25;;;;;;;34.35;15.60;;;;;;;23.00;54.06;101913.09;5094226;28;20043;-67
2023/10/10 05:44:51;;;;;;;34.83;15.52;;;;;;;22.84;55.14;101896.91;5110477;28;20047;-67
2023/10/10 05:47:17;;;;;;;37.75;15.98;;;;;;;22.96;54.10;101900.00;5112985;28;20100;-67
2023/10/10 05:49:42;;;;;;;31.92;15.93;;;;;;;22.19;56.33;101898.84;5093864;28;20032;-67
2023/10/10 05:52:08;;;;;;;36.92;16.50;;;;;;;22.05;57.58;101904.75;5093959;28;20471;-67
2023/10/10 05:54:33;;;;;;;32.80;15.52;;;;;;;23.04;54.61;101908.50;5094312;28;20541;-67
2023/10/10 05:56:59;;;;;;;35.05;16.65;;;;;;;23.23;53.95;101902.34;5111211;28;20034;-67
2023/10/10 05:59:24;;;;;;;34.25;15.02;;;;;;;22.92;54.49;101903.72;5112386;28;20111;-67
2023/10/10 06:01:50;;;;;;;33.20;16.15;;;;;;;22.76;55.31;101904.41;5093914;28;20072;-67
2023/10/10 06:04:16;;;;;;;38.35;16.30;;;;;;;22.72;55.66;101892.13;5093323;28;20027;-67
2023/10/10 06:06:43;;;;;;;37.38;15.95;;;;;;;22.84;54.80;101896.91;5112292;28;20038;-67
2023/10/10 06:09:18;;;;;;;37.08;17.27;;;;;;;22.13;56.57;101889.31;5093655;28;20463;-67
2023/10/10 06:11:44;;;;;;;39.20;17.83;;;;;;;22.24;56.89;101890.66;5093616;28;20472;-68
2023/10/10 06:14:11;;;;;;;40.47;17.88;;;;;;;21.59;58.90;101893.31;5093537;28;20031;-67
2023/10/10 06:16:37;;;;;;;34.33;16.88;;;;;;;22.71;56.17;101885.09;5111957;28;20476;-67
2023/10/10 06:19:03;;;;;;;40.47;17.63;;;;;;;22.12;57.18;101882.25;5110214;28;20058;-67
2023/10/10 06:21:32;;;;;;;36.80;17.48;;;;;;;22.73;54.97;101887.69;5093880;28;20031;-67
2023/10/10 06:23:57;;;;;;;41.22;17.65;;;;;;;22.58;55.63;101894.56;5093473;28;20023;-67
2023/10/10 06:26:24;;;;;;;41.45;18.15;;;;;;;22.36;56.37;101892.81;5111171;28;20525;-67
2023/10/10 06:28:53;;;;;;;45.50;19.02;;;;;;;21.86;58.03;101888.69;5093776;28;20023;-67
2023/10/10 06:31:19;;;;;;;44.05;19.13;;;;;;;21.71;59.71;101892.81;5093572;28;20076;-68
2023/10/10 06:33:49;;;;;;;38.90;17.98;;;;;;;22.28;58.25;101893.09;5092946;28;20088;-67
2023/10/10 06:39:18;;;;;;;43.47;17.45;;;;;;;22.34;58.42;101889.38;5112173;28;20092;-68
2023/10/10 06:41:48;;;;;;;40.90;18.17;;;;;;;22.58;56.81;101894.56;5111832;28;20023;-68
2023/10/10 06:44:14;;;;;;;40.50;19.30;;;;;;;22.77;56.59;101887.47;5093136;28;20026;-68
2023/10/10 06:46:41;;;;;;;39.20;20.17;;;;;;;22.20;58.55;101882.81;5111410;28;20058;-67
2023/10/10 06:49:07;;;;;;;44.38;19.75;;;;;;;22.45;58.92;101894.22;5092873;28;20046;-67
2023/10/10 06:51:41;;;;;;;42.15;19.25;;;;;;;23.02;56.25;101894.38;5110126;28;20399;-67
2023/10/10 06:54:19;;;;;;;48.33;21.55;;;;;;;23.06;55.42;101895.94;5092313;28;20023;-67
2023/10/10 06:56:53;;;;;;;44.38;19.88;;;;;;;23.23;55.04;101897.84;5109851;28;20126;-68
2023/10/10 06:59:25;;;;;;;43.13;20.60;;;;;;;22.81;58.45;101890.88;5111235;28;20030;-67
2023/10/10 07:01:51;;;;;;;41.17;18.60;;;;;;;22.55;58.24;101894.72;5092414;28;20050;-67
2023/10/10 07:04:18;;;;;;;49.00;21.00;;;;;;;22.27;59.18;101890.53;5109807;28;20400;-67
2023/10/10 07:06:47;;;;;;;41.50;21.05;;;;;;;22.46;59.68;101891.50;5110029;28;20440;-67
2023/10/10 07:09:14;;;;;;;39.40;19.40;;;;;;;23.00;57.58;101890.91;5110520;28;20465;-67
2023/10/10 07:11:43;;;;;;;43.53;20.63;;;;;;;22.76;58.04;101896.41;5092718;28;20054;-67
2023/10/10 07:14:10;;;;;;;46.35;20.88;;;;;;;23.26;56.28;101895.06;5091990;28;20468;-67
2023/10/10 07:16:36;;;;;;;43.28;20.10;;;;;;;22.66;58.01;101887.94;5092685;28;20072;-67
2023/10/10 07:19:19;;;;;;;43.03;20.67;;;;;;;22.09;61.06;101882.41;5108946;28;20019;-67
2023/10/10 07:21:44;;;;;;;;;;;;;;;22.11;61.21;101883.19;5092613;28;20031;-68
2023/10/10 07:24:16;;;;;;;39.38;20.17;;;;;;;22.43;61.61;101882.78;5092398;28;20370;-67
2023/10/10 07:26:43;;;;;;;43.33;20.08;;;;;;;22.20;61.48;101877.47;5110857;28;20030;-68
2023/10/10 07:29:57;;;;;;;51.90;22.35;;;;;;;22.66;59.65;101884.44;5091742;28;20047;-68
2023/10/10 07:32:16;;;;;;;45.17;21.73;;;;;;;22.59;61.38;101881.16;5110371;28;20035;-67
2023/10/10 07:34:51;;;;;;;47.20;22.95;;;;;;;21.82;62.90;101885.25;5092427;28;20119;-67
2023/10/10 07:37:17;;;;;;;40.80;20.95;;;;;;;22.65;61.13;101888.88;5091909;28;20475;-67
2023/10/10 07:39:55;;;;;;;47.67;22.17;;;;;;;22.48;60.90;101886.13;5092169;28;20039;-67
2023/10/10 07:42:29;;;;;;;44.35;23.38;;;;;;;23.20;58.11;101898.91;5092020;28;20163;-67
2023/10/10 07:44:57;;;;;;;47.05;22.65;;;;;;;22.30;60.97;101901.06;5109952;28;20051;-67
2023/10/10 07:47:31;;;;;;;47.78;21.25;;;;;;;23.44;57.22;101890.66;5109251;28;20023;-67
2023/10/10 07:50:00;;;;;;;41.67;20.65;;;;;;;23.43;58.05;101883.59;5091559;28;20058;-67
2023/10/10 07:52:25;;;;;;;50.30;24.25;;;;;;;22.77;60.69;101882.16;5110677;28;20495;-67
2023/10/10 07:54:52;;;;;;;43.70;20.65;;;;;;;23.02;59.21;101889.03;5110132;28;20047;-67
2023/10/10 07:57:22;;;;;;;49.20;22.50;;;;;;;23.52;57.95;101876.94;5110056;28;20031;-67
2023/10/10 07:59:49;;;;;;;46.53;22.15;;;;;;;22.98;58.75;101884.78;5110323;28;20104;-67
2023/10/10 08:02:34;;;;;;;49.75;22.40;;;;;;;22.78;60.68;101897.22;5091492;28;20027;-67
2023/10/10 08:05:09;;;;;;;43.60;21.95;;;;;;;22.23;62.15;101888.91;5091331;28;20506;-67
2023/10/10 08:07:35;;;;;;;43.47;21.73;;;;;;;24.24;55.69;101888.56;5110784;28;20510;-67
2023/10/10 08:13:00;;;;;;;48.50;20.67;;;;;;;23.50;58.25;101879.69;5096431;28;20027;-67
2023/10/10 08:15:27;;;;;;;38.85;21.50;;;;;;;23.60;58.05;101876.59;5092153;28;20081;-68
2023/10/10 08:17:54;;;;;;;40.03;20.38;;;;;;;23.64;57.29;101875.50;5107984;28;20024;-67
2023/10/10 08:20:34;;;;;;;47.30;23.20;;;;;;;24.04;55.84;101878.88;5108859;28;20471;-67
2023/10/10 08:23:04;;;;;;;42.25;20.52;;;;;;;23.45;58.47;101881.72;5091562;28;20024;-67
2023/10/10 08:25:29;;;;;;;41.45;20.15;;;;;;;23.93;58.15;101881.22;5109523;28;20032;-67
2023/10/10 08:27:56;;;;;;;50.83;22.40;;;;;;;23.88;56.53;101889.47;5110130;28;20038;-67
2023/10/10 08:30:25;;;;;;;48.03;21.02;;;;;;;23.25;59.93;101887.16;5091821;28;20068;-67
2023/10/10 08:33:01;;;;;;;48.05;22.60;;;;;;;24.80;55.06;101883.88;5108032;28;20024;-66
2023/10/10 08:35:29;;;;;;;46.28;22.35;;;;;;;23.92;57.05;101880.38;5091710;28;20032;-67
2023/10/10 08:37:56;;;;;;;43.55;21.20;;;;;;;24.58;55.59;101884.13;5091675;28;20038;-67
2023/10/10 08:40:21;;;;;;;39.38;19.80;;;;;;;24.86;54.06;101894.25;5091111;28;20055;-67
2023/10/10 08:42:49;;;;;;;39.80;19.83;;;;;;;24.22;55.85;101895.75;5112447;28;20042;-68
2023/10/10 08:45:23;;;;;;;43.40;20.60;;;;;;;24.18;55.89;101892.41;5095450;28;20581;-67
2023/10/10 08:48:02;;;;;;;38.33;19.30;;;;;;;24.27;55.81;101890.22;5112150;28;20031;-67
2023/10/10 08:50:29;;;;;;;41.22;20.45;;;;;;;24.36;56.34;101890.59;5113661;28;20031;-67
2023/10/10 08:52:55;;;;;;;38.97;19.15;;;;;;;24.51;55.84;101888.06;5112897;28;20511;-67
2023/10/10 08:55:26;;;;;;;39.95;19.52;;;;;;;25.61;52.52;101880.38;5095518;28;20026;-68
2023/10/10 08:57:58;;;;;;;37.05;18.27;;;;;;;24.80;54.19;101883.00;5113082;28;20417;-67
2023/10/10 09:00:27;;;;;;;36.42;19.65;;;;;;;24.44;55.13;101881.31;5113030;28;20046;-67
2023/10/10 09:02:56;;;;;;;35.17;16.85;;;;;;;24.82;53.99;101884.66;5113264;28;20038;-68
2023/10/10 09:05:24;;;;;;;38.92;19.38;;;;;;;25.31;53.62;101882.94;5095351;28;20452;-67
2023/10/10 09:07:53;;;;;;;29.40;15.45;;;;;;;25.44;53.05;101878.63;5112952;28;20045;-67
2023/10/10 09:10:28;;;;;;;34.03;18.00;;;;;;;26.72;49.79;101889.03;5094966;28;20069;-67
2023/10/10 09:12:58;;;;;;;32.95;17.63;;;;;;;26.56;49.47;101892.63;5094346;28;20085;-67
2023/10/10 09:15:24;;;;;;;32.80;15.82;;;;;;;27.06;48.58;101889.63;5094635;28;20073;-67
2023/10/10 09:17:55;;;;;;;29.98;15.75;;;;;;;24.89;52.92;101878.06;5111900;28;20024;-68
2023/10/10 09:20:28;;;;;;;32.08;15.30;;;;;;;25.67;51.91;101874.63;5113194;28;20023;-68
2023/10/10 09:22:58;;;;;;;25.77;14.23;;;;;;;25.18;53.08;101872.91;5112368;28;20020;-67
2023/10/10 09:25:48;;;;;;;27.88;13.57;;;;;;;25.20;53.13;101875.50;5094837;28;20051;-67
2023/10/10 09:28:15;;;;;;;26.60;13.30;;;;;;;25.76;51.07;101870.59;5110725;28;20050;-67
2023/10/10 09:30:58;;;;;;;27.85;13.65;;;;;;;25.55;51.12;101876.22;5113236;28;20106;-67
2023/10/10 09:33:33;;;;;;;26.48;14.13;;;;;;;25.70;51.22;101870.94;5094700;28;20028;-67
2023/10/10 09:36:08;;;;;;;26.15;12.35;;;;;;;26.80;48.47;101876.00;5093841;28;20027;-67
2023/10/10 09:38:45;;;;;;;27.45;13.95;;;;;;;24.95;52.89;101875.97;5095048;28;20368;-67
2023/10/10 09:49:46;;;;;;;23.55;11.65;;;;;;;27.14;48.22;101865.84;5112223;28;20035;-67
2023/10/10 09:55:38;;;;;;;26.15;11.82;;;;;;;26.67;47.84;101875.03;5111613;28;20042;-67
2023/10/10 10:00:46;;;;;;;24.35;11.48;;;;;;;27.72;45.66;101868.41;5112222;28;20461;-67
2023/10/10 10:03:31;;;;;;;25.63;12.70;;;;;;;26.02;49.27;101878.91;5093429;28;20437;-67
2023/10/10 10:06:00;;;;;;;23.38;12.05;;;;;;;26.67;47.89;101870.53;5093630;28;20023;-67
2023/10/10 10:09:01;;;;;;;20.25;10.10;;;;;;;27.28;46.33;101872.16;5112438;28;20030;-67
2023/10/10 10:11:35;;;;;;;25.25;12.23;;;;;;;26.30;48.49;101871.94;5111564;28;20046;-66
2023/10/10 10:14:15;;;;;;;20.90;12.02;;;;;;;26.18;48.73;101879.72;5111657;28;20023;-67
2023/10/10 10:17:19;;;;;;;22.50;11.90;;;;;;;27.58;46.31;101877.38;5093971;28;20019;-66
2023/10/10 10:19:47;;;;;;;21.90;10.85;;;;;;;27.67;46.81;101878.56;5093732;28;20027;-66
2023/10/10 10:22:21;;;;;;;24.35;12.20;;;;;;;27.79;45.28;101872.38;5093607;28;20027;-67
2023/10/10 10:24:46;;;;;;;22.10;11.02;;;;;;;27.03;46.44;101885.31;5093067;28;20024;-67
2023/10/10 10:27:34;;;;;;;23.25;10.82;;;;;;;27.87;45.25;101883.47;5093327;28;20741;-66
2023/10/10 10:30:46;;;;;;;24.05;11.38;;;;;;;27.73;46.30;101880.88;5111726;28;20027;-67
2023/10/10 10:32:54;;;;;;;25.63;12.43;;;;;;;27.91;45.80;101887.69;5107748;28;20114;-67
2023/10/10 10:35:25;;;;;;;20.95;10.95;;;;;;;28.46;44.56;101884.91;5093273;28;20028;-67
2023/10/10 10:37:59;;;;;;;23.23;11.07;;;;;;;29.27;43.29;101877.44;5093341;28;20073;-67
2023/10/10 10:43:14;;;;;;;25.15;11.00;;;;;;;27.66;45.23;101879.56;5111430;28;20081;-67
2023/10/10 10:45:44;;;;;;;27.23;11.60;;;;;;;26.57;47.65;101880.97;5092672;28;20417;-67
2023/10/10 10:48:29;;;;;;;21.67;10.77;;;;;;;27.59;45.96;101874.56;5092885;28;20023;-66
2023/10/10 10:51:22;;;;;;;21.48;11.05;;;;;;;28.81;44.12;101872.66;5111410;28;20038;-66
2023/10/10 10:53:50;;;;;;;19.67;10.60;;;;;;;27.22;46.13;101884.16;5110373;28;20035;-67
2023/10/10 11:01:21;;;;;;;27.15;11.88;;;;;;;28.19;45.19;101872.41;5110846;28;20043;-69
2023/10/10 11:03:51;;;;;;;19.25;10.20;;;;;;;28.72;43.98;101879.56;5111470;28;20031;-69
2023/10/10 11:06:20;;;;;;;20.05;10.68;;;;;;;28.89;43.68;101876.53;5092106;28;20022;-69
2023/10/10 11:14:19;;;;;;;23.05;10.95;;;;;;;28.32;44.71;101866.19;5110135;28;20046;-69
2023/10/10 11:16:45;;;;;;;24.13;10.63;;;;;;;28.75;44.25;101857.81;5111231;28;20024;-68
2023/10/10 11:21:53;;;;;;;19.67;9.48;;;;;;;30.12;41.64;101854.97;5110847;28;20041;-67
2023/10/10 11:24:23;;;;;;;22.95;11.23;;;;;;;28.74;43.97;101846.22;5110715;28;20077;-67
2023/10/10 11:29:45;;;;;;;23.55;10.25;;;;;;;28.12;44.42;101843.38;5110440;28;20089;-66
2023/10/10 11:32:36;;;;;;;20.60;10.27;;;;;;;28.48;44.04;101845.34;5092312;28;20023;-69
2023/10/10 11:37:59;;;;;;;19.98;9.88;;;;;;;28.94;43.38;101831.31;5100828;28;20035;-69
2023/10/10 11:42:59;;;;;;;22.17;10.00;;;;;;;29.14;43.13;101837.09;5109828;28;20040;-68
2023/10/10 11:45:28;;;;;;;24.10;10.43;;;;;;;28.94;43.28;101825.94;5110656;28;20456;-67
2023/10/10 11:48:05;;;;;;;19.65;10.60;;;;;;;28.85;42.89;101826.63;5091960;28;20471;-67
2023/10/10 11:50:50;;;;;;;22.30;10.00;;;;;;;29.28;42.86;101818.09;5110054;28;20022;-67
2023/10/10 11:53:23;;;;;;;18.65;9.02;;;;;;;30.24;41.34;101810.00;5092215;28;20039;-67
2023/10/10 11:55:52;;;;;;;23.67;11.13;;;;;;;29.47;40.83;101800.59;5110220;28;20434;-67
2023/10/10 11:58:18;;;;;;;18.35;9.57;;;;;;;28.61;44.09;101802.31;5109268;28;20112;-67
2023/10/10 12:00:45;;;;;;;21.75;9.98;;;;;;;29.03;43.04;101802.00;5110460;28;20052;-67
2023/10/10 12:03:41;;;;;;;20.90;9.55;;;;;;;29.90;41.21;101797.31;5091639;28;20562;-67
2023/10/10 12:06:02;;;;;;;22.15;9.05;;;;;;;29.86;40.26;101798.53;5109602;28;20475;-67
2023/10/10 12:08:27;;;;;;;17.52;8.45;;;;;;;30.80;39.96;101801.06;5092257;28;20034;-67
2023/10/10 12:11:04;;;;;;;20.73;9.25;;;;;;;29.87;40.45;101805.66;5108122;28;20079;-67
2023/10/10 12:15:55;;;;;;;19.15;9.25;;;;;;;29.28;41.26;101807.34;5110595;28;20150;-67
2023/10/10 12:18:21;;;;;;;20.58;9.73;;;;;;;30.03;40.74;101801.75;5113387;28;20051;-68
2023/10/10 12:20:47;;;;;;;18.02;9.10;;;;;;;30.47;39.52;101802.81;5096147;28;20410;-67
2023/10/10 12:23:15;;;;;;;21.08;8.95;;;;;;;30.73;38.98;101799.88;5096176;28;20019;-67
2023/10/10 12:25:41;;;;;;;21.08;8.82;;;;;;;31.29;38.67;101786.25;5113859;28;20033;-67
2023/10/10 12:28:12;;;;;;;18.45;8.27;;;;;;;31.76;38.46;101790.50;5113935;28;20476;-69
2023/10/10 12:30:40;;;;;;;18.73;8.77;;;;;;;29.95;40.48;101780.78;5113563;28;20027;-67
2023/10/10 12:33:07;;;;;;;19.48;8.73;;;;;;;31.11;38.86;101777.00;5113872;28;20163;-66
2023/10/10 12:35:32;;;;;;;20.83;8.38;;;;;;;29.16;41.63;101783.16;5114276;28;20479;-66
2023/10/10 12:38:01;;;;;;;19.05;8.50;;;;;;;29.79;41.58;101783.78;5113266;28;20035;-68
2023/10/10 12:40:29;;;;;;;16.15;6.97;;;;;;;30.82;38.87;101780.25;5114390;28;20076;-68
2023/10/10 12:42:54;;;;;;;16.25;8.13;;;;;;;30.77;39.41;101785.16;5113753;28;20020;-67
2023/10/10 12:45:20;;;;;;;16.98;7.38;;;;;;;31.23;38.82;101773.28;5113614;28;20115;-68
2023/10/10 12:47:45;;;;;;;26.83;7.85;;;;;;;31.34;37.74;101775.09;5095698;28;20030;-68
2023/10/10 12:50:14;;;;;;;17.20;8.90;;;;;;;30.01;41.37;101784.88;5095412;28;20476;-68
2023/10/10 12:52:45;;;;;;;14.75;7.43;;;;;;;30.23;40.41;101774.09;5112011;28;20376;-69
2023/10/10 12:55:11;;;;;;;15.10;7.63;;;;;;;30.68;40.29;101775.97;5113773;28;20027;-67
2023/10/10 12:57:37;;;;;;;16.30;8.05;;;;;;;30.83;39.51;101775.69;5113951;28;20027;-67
2023/10/10 13:02:48;;;;;;;14.60;8.40;;;;;;;29.82;40.61;101777.31;5114416;28;20041;-67
2023/10/10 13:05:16;;;;;;;13.88;7.13;;;;;;;31.82;38.59;101768.38;5094941;28;20510;-67
2023/10/10 13:07:43;;;;;;;20.75;8.25;;;;;;;30.84;38.75;101769.31;5112933;28;20139;-66
2023/10/10 13:10:13;;;;;;;14.27;7.78;;;;;;;30.83;38.56;101767.59;5094955;28;20019;-67
2023/10/10 13:12:46;;;;;;;16.25;7.30;;;;;;;30.25;39.32;101774.84;5113599;28;20026;-67
2023/10/10 13:15:29;;;;;;;16.83;7.47;;;;;;;29.91;39.58;101766.72;5094609;28;20019;-66
2023/10/10 13:20:39;;;;;;;15.90;6.57;;;;;;;30.18;39.00;101770.06;5113254;28;20038;-66
2023/10/10 13:23:06;;;;;;;16.42;6.82;;;;;;;31.02;37.84;101764.25;5112891;28;20040;-67
2023/10/10 13:25:37;;;;;;;14.27;6.32;;;;;;;30.60;38.21;101768.50;5094889;28;20031;-66
2023/10/10 13:28:09;;;;;;;15.70;6.30;;;;;;;30.42;38.78;101770.78;5093913;28;20031;-67
2023/10/10 13:30:36;;;;;;;14.30;6.25;;;;;;;29.70;38.24;101771.03;5113290;28;20019;-66
2023/10/10 13:33:01;;;;;;;12.23;6.38;;;;;;;30.88;37.29;101758.13;5094273;28;20024;-66
2023/10/10 13:35:28;;;;;;;12.65;5.40;;;;;;;31.18;36.49;101756.63;5112571;28;20023;-66
2023/10/10 13:37:53;;;;;;;12.30;6.30;;;;;;;30.19;37.19;101759.16;5112748;28;20024;-66
2023/10/10 13:40:22;;;;;;;12.40;5.70;;;;;;;28.82;39.11;101764.94;5113038;28;20075;-66
2023/10/10 13:42:48;;;;;;;11.77;6.10;;;;;;;28.77;39.47;101769.81;5093799;28;20114;-67
2023/10/10 13:45:19;;;;;;;13.35;6.47;;;;;;;29.43;38.15;101761.41;5110928;28;20114;-67
2023/10/10 13:47:48;;;;;;;15.20;6.35;;;;;;;28.96;39.38;101763.06;5112612;28;20031;-66
2023/10/10 13:50:51;;;;;;;14.55;6.15;;;;;;;28.59;39.92;101755.81;5111855;28;20023;-67
2023/10/10 13:53:06;;;;;;;11.88;6.32;;;;;;;28.90;39.41;101757.16;5108204;28;20395;-67
2023/10/10 13:55:33;;;;;;;12.07;5.97;;;;;;;29.14;39.49;101756.34;5112320;28;20022;-66
2023/10/10 13:57:59;;;;;;;11.75;4.88;;;;;;;28.63;40.18;101761.84;5112291;28;20494;-66
2023/10/10 14:00:33;;;;;;;12.75;6.30;;;;;;;29.20;39.16;101750.50;5093960;28;20059;-66
2023/10/10 14:03:05;;;;;;;13.90;5.22;;;;;;;29.57;38.39;101752.28;5111622;28;20026;-67
2023/10/10 14:05:34;;;;;;;12.95;6.28;;;;;;;29.68;38.65;101748.75;5112256;28;20034;-66
2023/10/10 14:08:02;;;;;;;16.60;6.25;;;;;;;29.10;39.88;101752.16;5111891;28;20030;-67
2023/10/10 14:10:40;;;;;;;14.20;5.95;;;;;;;29.20;39.82;101749.63;5111714;28;20019;-67
2023/10/10 14:13:40;;;;;;;12.07;5.90;;;;;;;30.72;37.11;101750.47;5093539;28;20555;-67
2023/10/10 14:15:59;;;;;;;14.35;6.13;;;;;;;30.09;38.38;101737.47;5108615;28;20032;-67
2023/10/10 14:18:28;;;;;;;14.18;5.80;;;;;;;30.69;37.15;101729.09;5111656;28;20501;-68
2023/10/10 14:20:54;;;;;;;11.45;5.63;;;;;;;29.71;37.74;101743.97;5111702;28;20110;-67
2023/10/10 14:23:25;;;;;;;12.60;5.30;;;;;;;31.75;35.42;101730.22;5093385;28;20102;-67
2023/10/10 14:26:11;;;;;;;12.23;5.50;;;;;;;30.35;37.38;101726.44;5111917;28;20031;-67
2023/10/10 14:28:37;;;;;;;11.45;5.60;;;;;;;30.82;35.75;101723.56;5093510;28;20023;-67
2023/10/10 14:31:03;;;;;;;13.55;5.53;;;;;;;30.82;36.08;101720.00;5092764;28;20046;-67
2023/10/10 14:33:28;;;;;;;17.38;5.85;;;;;;;30.53;36.61;101713.34;5093429;28;20019;-67
2023/10/10 14:35:54;;;;;;;8.80;4.97;;;;;;;30.35;37.42;101714.78;5109975;28;20020;-68
2023/10/10 14:38:19;;;;;;;12.23;5.35;;;;;;;30.63;37.02;101706.19;5093109;28;20490;-67